sensor_id;sensor_type;location;lat;lon;timestamp;pressure;altitude;pressure_sealevel;temperature;humidity
39715;BME280;54166;53.172;-6.552;2023-04-29T00:00:54;99285.52;;;17.96;36.46
39715;BME280;54166;53.172;-6.552;2023-04-29T00:03:21;99286.73;;;17.94;36.46
39715;BME280;54166;53.172;-6.552;2023-04-29T00:05:48;99284.08;;;17.93;36.45
39715;BME280;54166;53.172;-6.552;2023-04-29T00:08:15;99281.38;;;17.89;36.47
39715;BME280;54166;53.172;-6.552;2023-04-29T00:10:43;99284.48;;;17.85;36.50
39715;BME280;54166;53.172;-6.552;2023-04-29T00:13:10;99284.96;;;17.84;36.50
39715;BME280;54166;53.172;-6.552;2023-04-29T00:15:36;99282.95;;;17.82;36.50
39715;BME280;54166;53.172;-6.552;2023-04-29T00:18:03;99281.01;;;18.20;36.52
39715;BME280;54166;53.172;-6.552;2023-04-29T00:20:30;99282.67;;;17.81;36.49
39715;BME280;54166;53.172;-6.552;2023-04-29T00:22:57;99282.31;;;18.19;36.49
39715;BME280;54166;53.172;-6.552;2023-04-29T00:25:24;99282.67;;;17.78;36.49
39715;BME280;54166;53.172;-6.552;2023-04-29T00:27:51;99283.37;;;17.76;36.50
39715;BME280;54166;53.172;-6.552;2023-04-29T00:30:18;99284.28;;;17.76;36.49
39715;BME280;54166;53.172;-6.552;2023-04-29T00:32:45;99285.81;;;17.74;36.48
39715;BME280;54166;53.172;-6.552;2023-04-29T00:35:12;99288.83;;;17.73;36.45
39715;BME280;54166;53.172;-6.552;2023-04-29T00:37:39;99288.87;;;17.72;36.45
39715;BME280;54166;53.172;-6.552;2023-04-29T00:40:07;99289.22;;;17.72;36.42
39715;BME280;54166;53.172;-6.552;2023-04-29T00:42:36;99291.02;;;18.10;36.41
39715;BME280;54166;53.172;-6.552;2023-04-29T00:45:04;99292.57;;;17.69;36.43
39715;BME280;54166;53.172;-6.552;2023-04-29T00:47:31;99291.70;;;17.68;36.42
39715;BME280;54166;53.172;-6.552;2023-04-29T00:49:58;99291.99;;;17.67;36.43
39715;BME280;54166;53.172;-6.552;2023-04-29T00:52:25;99292.50;;;17.66;36.43
39715;BME280;54166;53.172;-6.552;2023-04-29T00:54:55;99293.85;;;18.04;36.41
39715;BME280;54166;53.172;-6.552;2023-04-29T00:57:23;99291.52;;;18.02;36.41
39715;BME280;54166;53.172;-6.552;2023-04-29T00:59:50;99293.97;;;18.01;36.38
39715;BME280;54166;53.172;-6.552;2023-04-29T01:02:18;99289.54;;;17.62;36.34
39715;BME280;54166;53.172;-6.552;2023-04-29T01:04:45;99285.94;;;17.99;36.35
39715;BME280;54166;53.172;-6.552;2023-04-29T01:07:15;99289.14;;;17.59;36.33
39715;BME280;54166;53.172;-6.552;2023-04-29T01:09:52;99287.27;;;17.57;36.31
39715;BME280;54166;53.172;-6.552;2023-04-29T01:12:28;99289.15;;;17.94;36.33
39715;BME280;54166;53.172;-6.552;2023-04-29T01:15:03;99288.62;;;17.92;36.35
39715;BME280;54166;53.172;-6.552;2023-04-29T01:17:39;99288.26;;;17.51;36.32
39715;BME280;54166;53.172;-6.552;2023-04-29T01:20:09;99287.98;;;17.50;36.33
39715;BME280;54166;53.172;-6.552;2023-04-29T01:22:37;99285.81;;;17.49;36.33
39715;BME280;54166;53.172;-6.552;2023-04-29T01:25:05;99286.63;;;17.90;36.30
39715;BME280;54166;53.172;-6.552;2023-04-29T01:27:35;99286.97;;;17.88;36.30
39715;BME280;54166;53.172;-6.552;2023-04-29T01:30:09;99286.88;;;17.48;36.35
39715;BME280;54166;53.172;-6.552;2023-04-29T01:32:49;99286.49;;;17.51;36.32
39715;BME280;54166;53.172;-6.552;2023-04-29T01:35:31;99283.64;;;17.88;36.44
39715;BME280;54166;53.172;-6.552;2023-04-29T01:38:13;99281.81;;;17.85;36.44
39715;BME280;54166;53.172;-6.552;2023-04-29T01:40:47;99279.59;;;17.84;36.37
39715;BME280;54166;53.172;-6.552;2023-04-29T01:43:16;99277.51;;;17.85;36.39
39715;BME280;54166;53.172;-6.552;2023-04-29T01:45:44;99279.70;;;17.86;36.34
39715;BME280;54166;53.172;-6.552;2023-04-29T01:48:12;99280.50;;;17.45;36.28
39715;BME280;54166;53.172;-6.552;2023-04-29T01:50:39;99281.39;;;17.45;36.28
39715;BME280;54166;53.172;-6.552;2023-04-29T01:53:06;99280.77;;;17.44;36.28
39715;BME280;54166;53.172;-6.552;2023-04-29T01:55:34;99283.91;;;18.16;36.30
39715;BME280;54166;53.172;-6.552;2023-04-29T01:58:00;99286.49;;;17.41;36.30
39715;BME280;54166;53.172;-6.552;2023-04-29T02:00:27;99289.63;;;17.40;36.27
39715;BME280;54166;53.172;-6.552;2023-04-29T02:02:54;99291.29;;;17.39;36.24
39715;BME280;54166;53.172;-6.552;2023-04-29T02:05:21;99289.14;;;17.38;36.24
39715;BME280;54166;53.172;-6.552;2023-04-29T02:07:48;99287.90;;;17.37;36.23
39715;BME280;54166;53.172;-6.552;2023-04-29T02:10:15;99284.70;;;17.75;36.25
39715;BME280;54166;53.172;-6.552;2023-04-29T02:12:43;99283.34;;;17.34;36.25
39715;BME280;54166;53.172;-6.552;2023-04-29T02:15:10;99284.02;;;17.32;36.22
39715;BME280;54166;53.172;-6.552;2023-04-29T02:17:38;99284.36;;;17.71;36.22
39715;BME280;54166;53.172;-6.552;2023-04-29T02:20:06;99284.86;;;18.03;36.22
39715;BME280;54166;53.172;-6.552;2023-04-29T02:22:33;99286.74;;;17.67;36.27
39715;BME280;54166;53.172;-6.552;2023-04-29T02:25:01;99289.23;;;17.27;36.29
39715;BME280;54166;53.172;-6.552;2023-04-29T02:27:28;99291.25;;;17.67;36.29
39715;BME280;54166;53.172;-6.552;2023-04-29T02:29:55;99288.83;;;17.64;36.36
39715;BME280;54166;53.172;-6.552;2023-04-29T02:32:22;99289.16;;;17.65;36.27
39715;BME280;54166;53.172;-6.552;2023-04-29T02:34:49;99289.28;;;17.63;36.27
39715;BME280;54166;53.172;-6.552;2023-04-29T02:37:17;99290.85;;;17.21;36.29
39715;BME280;54166;53.172;-6.552;2023-04-29T02:39:44;99291.48;;;17.21;36.32
39715;BME280;54166;53.172;-6.552;2023-04-29T02:42:11;99291.11;;;17.21;36.27
39715;BME280;54166;53.172;-6.552;2023-04-29T02:44:38;99288.52;;;17.60;36.26
39715;BME280;54166;53.172;-6.552;2023-04-29T02:47:06;99289.60;;;17.18;36.26
39715;BME280;54166;53.172;-6.552;2023-04-29T02:49:33;99293.13;;;17.57;36.25
39715;BME280;54166;53.172;-6.552;2023-04-29T02:52:00;99297.67;;;17.56;36.24
39715;BME280;54166;53.172;-6.552;2023-04-29T02:54:27;99297.26;;;17.55;36.23
39715;BME280;54166;53.172;-6.552;2023-04-29T02:56:54;99296.20;;;17.54;36.21
39715;BME280;54166;53.172;-6.552;2023-04-29T02:59:21;99296.80;;;17.13;36.22
39715;BME280;54166;53.172;-6.552;2023-04-29T03:01:48;99294.09;;;17.52;36.22
39715;BME280;54166;53.172;-6.552;2023-04-29T03:04:15;99291.32;;;17.84;36.22
39715;BME280;54166;53.172;-6.552;2023-04-29T03:06:42;99292.37;;;17.83;36.23
39715;BME280;54166;53.172;-6.552;2023-04-29T03:09:09;99291.96;;;17.48;36.22
39715;BME280;54166;53.172;-6.552;2023-04-29T03:11:36;99295.71;;;17.82;36.22
39715;BME280;54166;53.172;-6.552;2023-04-29T03:14:03;99296.06;;;17.47;36.22
39715;BME280;54166;53.172;-6.552;2023-04-29T03:16:30;99300.54;;;17.05;36.22
39715;BME280;54166;53.172;-6.552;2023-04-29T03:18:57;99302.56;;;17.45;36.22
39715;BME280;54166;53.172;-6.552;2023-04-29T03:21:24;99305.57;;;17.77;36.22
39715;BME280;54166;53.172;-6.552;2023-04-29T03:23:50;99308.44;;;17.43;36.21
39715;BME280;54166;53.172;-6.552;2023-04-29T03:26:17;99311.11;;;17.44;36.22
39715;BME280;54166;53.172;-6.552;2023-04-29T03:28:44;99312.82;;;17.03;36.21
39715;BME280;54166;53.172;-6.552;2023-04-29T03:31:11;99312.91;;;17.75;36.19
39715;BME280;54166;53.172;-6.552;2023-04-29T03:33:38;99311.17;;;17.41;36.21
39715;BME280;54166;53.172;-6.552;2023-04-29T03:36:06;99313.65;;;17.74;36.19
39715;BME280;54166;53.172;-6.552;2023-04-29T03:38:33;99310.11;;;17.39;36.19
39715;BME280;54166;53.172;-6.552;2023-04-29T03:41:00;99311.78;;;17.72;36.21
39715;BME280;54166;53.172;-6.552;2023-04-29T03:43:28;99312.98;;;17.38;36.20
39715;BME280;54166;53.172;-6.552;2023-04-29T03:45:55;99311.77;;;17.69;36.21
39715;BME280;54166;53.172;-6.552;2023-04-29T03:48:22;99309.18;;;17.36;36.20
39715;BME280;54166;53.172;-6.552;2023-04-29T03:50:49;99308.02;;;17.70;36.20
39715;BME280;54166;53.172;-6.552;2023-04-29T03:56:12;99307.92;;;17.24;35.85
39715;BME280;54166;53.172;-6.552;2023-04-29T03:58:38;99313.29;;;17.56;35.94
39715;BME280;54166;53.172;-6.552;2023-04-29T04:01:05;99315.42;;;17.14;35.92
39715;BME280;54166;53.172;-6.552;2023-04-29T04:03:32;99310.60;;;17.12;35.95
39715;BME280;54166;53.172;-6.552;2023-04-29T04:05:59;99313.00;;;17.05;36.00
39715;BME280;54166;53.172;-6.552;2023-04-29T04:08:26;99311.47;;;17.38;36.07
39715;BME280;54166;53.172;-6.552;2023-04-29T04:10:53;99310.44;;;17.68;36.12
39715;BME280;54166;53.172;-6.552;2023-04-29T04:13:20;99309.45;;;17.31;36.14
39715;BME280;54166;53.172;-6.552;2023-04-29T04:15:49;99308.78;;;17.29;36.17
39715;BME280;54166;53.172;-6.552;2023-04-29T04:18:16;99307.68;;;17.27;36.18
39715;BME280;54166;53.172;-6.552;2023-04-29T04:20:43;99310.90;;;17.58;36.21
39715;BME280;54166;53.172;-6.552;2023-04-29T04:23:10;99313.03;;;17.23;36.21
39715;BME280;54166;53.172;-6.552;2023-04-29T04:25:37;99309.31;;;17.56;36.23
39715;BME280;54166;53.172;-6.552;2023-04-29T04:28:04;99308.49;;;17.55;36.21
39715;BME280;54166;53.172;-6.552;2023-04-29T04:30:31;99307.44;;;17.21;36.19
39715;BME280;54166;53.172;-6.552;2023-04-29T04:32:58;99309.41;;;17.55;36.19
39715;BME280;54166;53.172;-6.552;2023-04-29T04:35:25;99309.62;;;17.52;36.17
39715;BME280;54166;53.172;-6.552;2023-04-29T04:37:52;99309.31;;;17.53;36.18
39715;BME280;54166;53.172;-6.552;2023-04-29T04:40:19;99311.94;;;17.18;36.24
39715;BME280;54166;53.172;-6.552;2023-04-29T04:42:46;99312.93;;;17.17;36.21
39715;BME280;54166;53.172;-6.552;2023-04-29T04:45:13;99311.53;;;17.49;36.22
39715;BME280;54166;53.172;-6.552;2023-04-29T04:47:40;99311.39;;;17.49;36.27
39715;BME280;54166;53.172;-6.552;2023-04-29T04:52:23;99316.03;;;18.55;36.62
39715;BME280;54166;53.172;-6.552;2023-04-29T04:54:50;99317.56;;;16.94;36.49
39715;BME280;54166;53.172;-6.552;2023-04-29T04:57:17;99318.38;;;17.02;36.39
39715;BME280;54166;53.172;-6.552;2023-04-29T04:59:45;99320.62;;;17.38;36.35
39715;BME280;54166;53.172;-6.552;2023-04-29T05:02:12;99322.91;;;17.07;36.35
39715;BME280;54166;53.172;-6.552;2023-04-29T05:04:39;99321.90;;;17.42;36.32
39715;BME280;54166;53.172;-6.552;2023-04-29T05:07:06;99325.69;;;17.09;36.30
39715;BME280;54166;53.172;-6.552;2023-04-29T05:09:33;99325.04;;;17.42;36.32
39715;BME280;54166;53.172;-6.552;2023-04-29T05:12:00;99324.76;;;17.42;36.31
39715;BME280;54166;53.172;-6.552;2023-04-29T05:14:27;99324.92;;;17.42;36.31
39715;BME280;54166;53.172;-6.552;2023-04-29T05:16:58;99324.35;;;17.41;36.31
39715;BME280;54166;53.172;-6.552;2023-04-29T05:19:25;99324.41;;;17.41;36.31
39715;BME280;54166;53.172;-6.552;2023-04-29T05:21:52;99325.98;;;17.41;36.31
39715;BME280;54166;53.172;-6.552;2023-04-29T05:24:19;99326.83;;;17.07;36.31
39715;BME280;54166;53.172;-6.552;2023-04-29T05:26:46;99328.68;;;17.12;36.23
39715;BME280;54166;53.172;-6.552;2023-04-29T05:29:14;99332.09;;;17.12;36.22
39715;BME280;54166;53.172;-6.552;2023-04-29T05:31:41;99333.37;;;17.43;36.25
39715;BME280;54166;53.172;-6.552;2023-04-29T05:34:09;99334.36;;;16.67;36.27
39715;BME280;54166;53.172;-6.552;2023-04-29T05:36:35;99336.02;;;17.38;36.30
39715;BME280;54166;53.172;-6.552;2023-04-29T05:39:02;99340.51;;;17.05;36.31
39715;BME280;54166;53.172;-6.552;2023-04-29T05:41:29;99339.90;;;17.38;36.33
39715;BME280;54166;53.172;-6.552;2023-04-29T05:43:56;99339.19;;;16.64;36.31
39715;BME280;54166;53.172;-6.552;2023-04-29T05:46:23;99340.74;;;17.03;36.32
39715;BME280;54166;53.172;-6.552;2023-04-29T05:48:50;99342.72;;;17.36;36.33
39715;BME280;54166;53.172;-6.552;2023-04-29T05:51:17;99343.95;;;17.36;36.33
39715;BME280;54166;53.172;-6.552;2023-04-29T05:53:45;99345.41;;;17.35;36.35
39715;BME280;54166;53.172;-6.552;2023-04-29T05:56:12;99346.85;;;17.44;36.25
39715;BME280;54166;53.172;-6.552;2023-04-29T05:58:39;99345.97;;;17.44;36.27
39715;BME280;54166;53.172;-6.552;2023-04-29T06:01:06;99346.61;;;17.08;36.30
39715;BME280;54166;53.172;-6.552;2023-04-29T06:03:33;99347.87;;;17.40;36.31
39715;BME280;54166;53.172;-6.552;2023-04-29T06:06:00;99348.00;;;16.64;36.34
39715;BME280;54166;53.172;-6.552;2023-04-29T06:08:27;99347.61;;;17.02;36.37
39715;BME280;54166;53.172;-6.552;2023-04-29T06:10:54;99348.16;;;17.34;36.41
39715;BME280;54166;53.172;-6.552;2023-04-29T06:13:21;99351.38;;;17.34;36.41
39715;BME280;54166;53.172;-6.552;2023-04-29T06:15:48;99351.18;;;17.00;36.43
39715;BME280;54166;53.172;-6.552;2023-04-29T06:18:15;99353.46;;;17.33;36.44
39715;BME280;54166;53.172;-6.552;2023-04-29T06:20:42;99354.69;;;17.33;36.45
39715;BME280;54166;53.172;-6.552;2023-04-29T06:23:09;99356.68;;;17.32;36.45
39715;BME280;54166;53.172;-6.552;2023-04-29T06:25:36;99358.47;;;17.32;36.46
39715;BME280;54166;53.172;-6.552;2023-04-29T06:28:03;99361.07;;;16.98;36.47
39715;BME280;54166;53.172;-6.552;2023-04-29T06:30:30;99363.90;;;17.31;36.48
39715;BME280;54166;53.172;-6.552;2023-04-29T06:32:57;99367.14;;;17.31;36.54
39715;BME280;54166;53.172;-6.552;2023-04-29T06:35:24;99370.51;;;17.31;36.59
39715;BME280;54166;53.172;-6.552;2023-04-29T06:37:51;99369.58;;;17.32;36.62
39715;BME280;54166;53.172;-6.552;2023-04-29T06:40:19;99366.56;;;17.31;36.57
39715;BME280;54166;53.172;-6.552;2023-04-29T06:42:46;99368.70;;;16.98;36.58
39715;BME280;54166;53.172;-6.552;2023-04-29T06:45:12;99373.65;;;17.32;36.51
39715;BME280;54166;53.172;-6.552;2023-04-29T06:47:39;99375.42;;;17.33;36.48
39715;BME280;54166;53.172;-6.552;2023-04-29T06:50:07;99378.88;;;16.99;36.44
39715;BME280;54166;53.172;-6.552;2023-04-29T06:52:34;99381.51;;;17.34;36.44
39715;BME280;54166;53.172;-6.552;2023-04-29T06:55:01;99380.00;;;17.01;36.44
39715;BME280;54166;53.172;-6.552;2023-04-29T06:57:29;99380.46;;;17.35;36.43
39715;BME280;54166;53.172;-6.552;2023-04-29T06:59:56;99381.89;;;17.37;36.42
39715;BME280;54166;53.172;-6.552;2023-04-29T07:02:23;99384.77;;;17.38;36.45
39715;BME280;54166;53.172;-6.552;2023-04-29T07:04:50;99385.79;;;17.39;36.43
39715;BME280;54166;53.172;-6.552;2023-04-29T07:07:16;99388.48;;;17.06;36.44
39715;BME280;54166;53.172;-6.552;2023-04-29T07:09:43;99390.36;;;17.07;36.42
39715;BME280;54166;53.172;-6.552;2023-04-29T07:12:10;99391.72;;;17.08;36.40
39715;BME280;54166;53.172;-6.552;2023-04-29T07:14:37;99393.77;;;17.40;36.44
39715;BME280;54166;53.172;-6.552;2023-04-29T07:17:04;99394.53;;;17.39;36.42
39715;BME280;54166;53.172;-6.552;2023-04-29T07:19:31;99398.68;;;17.41;36.43
39715;BME280;54166;53.172;-6.552;2023-04-29T07:21:58;99398.25;;;17.40;36.43
39715;BME280;54166;53.172;-6.552;2023-04-29T07:24:25;99400.14;;;17.06;36.43
39715;BME280;54166;53.172;-6.552;2023-04-29T07:26:52;99402.00;;;17.39;36.44
39715;BME280;54166;53.172;-6.552;2023-04-29T07:29:19;99400.81;;;17.06;36.44
39715;BME280;54166;53.172;-6.552;2023-04-29T07:31:46;99404.76;;;17.05;36.46
39715;BME280;54166;53.172;-6.552;2023-04-29T07:34:13;99403.57;;;17.37;36.48
39715;BME280;54166;53.172;-6.552;2023-04-29T07:36:40;99405.76;;;17.37;36.49
39715;BME280;54166;53.172;-6.552;2023-04-29T07:39:07;99405.48;;;17.38;36.48
39715;BME280;54166;53.172;-6.552;2023-04-29T07:41:33;99406.36;;;17.05;36.59
39715;BME280;54166;53.172;-6.552;2023-04-29T07:44:00;99406.23;;;17.38;36.53
39715;BME280;54166;53.172;-6.552;2023-04-29T07:46:27;99406.52;;;17.37;36.52
39715;BME280;54166;53.172;-6.552;2023-04-29T07:48:55;99404.32;;;17.38;36.53
39715;BME280;54166;53.172;-6.552;2023-04-29T07:51:22;99406.19;;;17.39;36.53
39715;BME280;54166;53.172;-6.552;2023-04-29T07:53:49;99408.00;;;17.38;36.56
39715;BME280;54166;53.172;-6.552;2023-04-29T07:56:16;99409.05;;;17.38;36.56
39715;BME280;54166;53.172;-6.552;2023-04-29T07:58:43;99406.03;;;17.38;36.59
39715;BME280;54166;53.172;-6.552;2023-04-29T08:01:10;99402.93;;;17.39;36.60
39715;BME280;54166;53.172;-6.552;2023-04-29T08:03:38;99400.19;;;17.08;37.14
39715;BME280;54166;53.172;-6.552;2023-04-29T08:06:05;99398.45;;;17.45;36.77
39715;BME280;54166;53.172;-6.552;2023-04-29T08:08:32;99398.52;;;17.47;36.63
39715;BME280;54166;53.172;-6.552;2023-04-29T08:10:59;99399.20;;;17.48;36.74
39715;BME280;54166;53.172;-6.552;2023-04-29T08:13:26;99398.21;;;17.49;36.81
39715;BME280;54166;53.172;-6.552;2023-04-29T08:15:53;99394.72;;;17.50;36.75
39715;BME280;54166;53.172;-6.552;2023-04-29T08:18:20;99396.11;;;17.50;36.78
39715;BME280;54166;53.172;-6.552;2023-04-29T08:20:47;99399.84;;;17.52;36.85
39715;BME280;54166;53.172;-6.552;2023-04-29T08:23:15;99401.30;;;17.53;36.83
39715;BME280;54166;53.172;-6.552;2023-04-29T08:25:42;99397.87;;;17.22;36.88
39715;BME280;54166;53.172;-6.552;2023-04-29T08:28:10;99398.53;;;17.55;36.85
39715;BME280;54166;53.172;-6.552;2023-04-29T08:30:38;99400.72;;;17.59;37.04
39715;BME280;54166;53.172;-6.552;2023-04-29T08:33:06;99399.75;;;17.58;36.91
39715;BME280;54166;53.172;-6.552;2023-04-29T08:35:34;99401.22;;;17.58;36.87
39715;BME280;54166;53.172;-6.552;2023-04-29T08:38:02;99402.11;;;17.26;36.81
39715;BME280;54166;53.172;-6.552;2023-04-29T08:40:29;99401.84;;;17.24;36.97
39715;BME280;54166;53.172;-6.552;2023-04-29T08:42:56;99401.32;;;17.59;37.32
39715;BME280;54166;53.172;-6.552;2023-04-29T08:45:26;99400.48;;;17.26;37.30
39715;BME280;54166;53.172;-6.552;2023-04-29T08:47:55;99401.53;;;17.63;37.53
39715;BME280;54166;53.172;-6.552;2023-04-29T08:50:23;99402.73;;;17.63;37.88
39715;BME280;54166;53.172;-6.552;2023-04-29T08:52:50;99400.96;;;16.94;38.28
39715;BME280;54166;53.172;-6.552;2023-04-29T08:55:17;99401.56;;;17.69;38.29
39715;BME280;54166;53.172;-6.552;2023-04-29T08:57:46;99402.85;;;17.70;38.32
39715;BME280;54166;53.172;-6.552;2023-04-29T09:00:16;99402.47;;;17.70;38.21
39715;BME280;54166;53.172;-6.552;2023-04-29T09:02:47;99407.23;;;17.39;38.18
39715;BME280;54166;53.172;-6.552;2023-04-29T09:05:15;99407.50;;;17.75;38.42
39715;BME280;54166;53.172;-6.552;2023-04-29T09:07:43;99408.19;;;17.82;38.78
39715;BME280;54166;53.172;-6.552;2023-04-29T09:10:12;99410.77;;;17.87;39.62
39715;BME280;54166;53.172;-6.552;2023-04-29T09:12:40;99411.30;;;17.14;39.96
39715;BME280;54166;53.172;-6.552;2023-04-29T09:15:09;99413.04;;;17.57;39.83
39715;BME280;54166;53.172;-6.552;2023-04-29T09:17:40;99417.33;;;17.63;39.74
39715;BME280;54166;53.172;-6.552;2023-04-29T09:20:26;99415.66;;;18.00;39.90
39715;BME280;54166;53.172;-6.552;2023-04-29T09:22:55;99417.10;;;17.64;40.07
39715;BME280;54166;53.172;-6.552;2023-04-29T09:25:23;99416.63;;;17.67;40.03
39715;BME280;54166;53.172;-6.552;2023-04-29T09:27:50;99416.37;;;17.71;39.78
39715;BME280;54166;53.172;-6.552;2023-04-29T09:30:17;99415.35;;;17.31;39.82
39715;BME280;54166;53.172;-6.552;2023-04-29T09:32:45;99416.52;;;17.73;39.86
39715;BME280;54166;53.172;-6.552;2023-04-29T09:35:22;99416.64;;;17.71;39.95
39715;BME280;54166;53.172;-6.552;2023-04-29T09:37:50;99417.74;;;17.72;40.00
39715;BME280;54166;53.172;-6.552;2023-04-29T09:40:27;99421.76;;;18.08;39.88
39715;BME280;54166;53.172;-6.552;2023-04-29T09:42:54;99420.01;;;17.33;39.79
39715;BME280;54166;53.172;-6.552;2023-04-29T09:45:32;99424.09;;;17.78;39.78
39715;BME280;54166;53.172;-6.552;2023-04-29T09:48:01;99425.80;;;17.35;39.90
39715;BME280;54166;53.172;-6.552;2023-04-29T09:50:28;99429.41;;;18.18;40.10
39715;BME280;54166;53.172;-6.552;2023-04-29T09:52:55;99428.02;;;17.85;39.95
39715;BME280;54166;53.172;-6.552;2023-04-29T09:55:22;99425.98;;;17.45;39.93
39715;BME280;54166;53.172;-6.552;2023-04-29T09:57:49;99423.92;;;18.19;39.82
39715;BME280;54166;53.172;-6.552;2023-04-29T10:00:16;99421.08;;;17.48;39.79
39715;BME280;54166;53.172;-6.552;2023-04-29T10:02:45;99419.56;;;17.47;39.76
39715;BME280;54166;53.172;-6.552;2023-04-29T10:05:14;99419.56;;;17.47;39.73
39715;BME280;54166;53.172;-6.552;2023-04-29T10:07:42;99419.74;;;17.49;39.51
39715;BME280;54166;53.172;-6.552;2023-04-29T10:10:12;99422.66;;;17.47;39.43
39715;BME280;54166;53.172;-6.552;2023-04-29T10:12:39;99423.46;;;17.46;39.31
39715;BME280;54166;53.172;-6.552;2023-04-29T10:15:15;99421.95;;;17.87;39.46
39715;BME280;54166;53.172;-6.552;2023-04-29T10:17:50;99422.77;;;17.48;39.65
39715;BME280;54166;53.172;-6.552;2023-04-29T10:20:22;99423.47;;;17.88;39.78
39715;BME280;54166;53.172;-6.552;2023-04-29T10:22:51;99424.64;;;17.89;39.72
39715;BME280;54166;53.172;-6.552;2023-04-29T10:25:21;99427.02;;;17.48;39.76
39715;BME280;54166;53.172;-6.552;2023-04-29T10:27:49;99429.91;;;17.90;39.57
39715;BME280;54166;53.172;-6.552;2023-04-29T10:30:18;99432.00;;;17.91;39.69
39715;BME280;54166;53.172;-6.552;2023-04-29T10:32:47;99432.23;;;17.56;39.78
39715;BME280;54166;53.172;-6.552;2023-04-29T10:35:16;99432.20;;;17.58;39.61
39715;BME280;54166;53.172;-6.552;2023-04-29T10:37:45;99433.93;;;17.57;39.47
39715;BME280;54166;53.172;-6.552;2023-04-29T10:40:16;99437.64;;;17.57;39.78
39715;BME280;54166;53.172;-6.552;2023-04-29T10:42:46;99436.50;;;17.61;39.54
39715;BME280;54166;53.172;-6.552;2023-04-29T10:45:18;99439.72;;;17.71;39.42
39715;BME280;54166;53.172;-6.552;2023-04-29T10:48:18;99437.69;;;19.16;39.72
39715;BME280;54166;53.172;-6.552;2023-04-29T10:51:02;99433.47;;;17.70;39.60
39715;BME280;54166;53.172;-6.552;2023-04-29T10:53:29;99429.97;;;17.76;39.66
39715;BME280;54166;53.172;-6.552;2023-04-29T10:56:03;99429.05;;;17.80;39.59
39715;BME280;54166;53.172;-6.552;2023-04-29T10:58:41;99427.71;;;18.25;39.56
39715;BME280;54166;53.172;-6.552;2023-04-29T11:01:10;99431.58;;;17.83;39.51
39715;BME280;54166;53.172;-6.552;2023-04-29T11:03:47;99434.52;;;17.85;39.51
39715;BME280;54166;53.172;-6.552;2023-04-29T11:06:15;99432.38;;;17.83;39.44
39715;BME280;54166;53.172;-6.552;2023-04-29T11:08:43;99435.39;;;17.85;39.49
39715;BME280;54166;53.172;-6.552;2023-04-29T11:11:12;99434.71;;;17.89;39.38
39715;BME280;54166;53.172;-6.552;2023-04-29T11:13:40;99434.42;;;17.93;39.30
39715;BME280;54166;53.172;-6.552;2023-04-29T11:16:12;99433.32;;;18.37;39.18
39715;BME280;54166;53.172;-6.552;2023-04-29T11:19:04;99428.55;;;18.01;39.13
39715;BME280;54166;53.172;-6.552;2023-04-29T11:21:34;99425.05;;;17.98;39.38
39715;BME280;54166;53.172;-6.552;2023-04-29T11:24:03;99425.90;;;17.99;39.70
39715;BME280;54166;53.172;-6.552;2023-04-29T11:26:33;99430.02;;;17.69;39.69
39715;BME280;54166;53.172;-6.552;2023-04-29T11:29:01;99431.50;;;18.07;39.79
39715;BME280;54166;53.172;-6.552;2023-04-29T11:31:29;99428.92;;;18.07;39.86
39715;BME280;54166;53.172;-6.552;2023-04-29T11:33:57;99424.03;;;18.07;39.78
39715;BME280;54166;53.172;-6.552;2023-04-29T11:36:25;99418.18;;;17.76;40.06
39715;BME280;54166;53.172;-6.552;2023-04-29T11:38:53;99416.19;;;18.49;39.94
39715;BME280;54166;53.172;-6.552;2023-04-29T11:41:20;99414.03;;;18.10;39.83
39715;BME280;54166;53.172;-6.552;2023-04-29T11:43:54;99414.73;;;18.11;39.72
39715;BME280;54166;53.172;-6.552;2023-04-29T11:46:22;99415.96;;;18.10;39.69
39715;BME280;54166;53.172;-6.552;2023-04-29T11:48:49;99417.82;;;18.13;39.77
39715;BME280;54166;53.172;-6.552;2023-04-29T11:51:17;99416.36;;;18.14;39.70
39715;BME280;54166;53.172;-6.552;2023-04-29T11:53:45;99413.75;;;18.54;39.69
39715;BME280;54166;53.172;-6.552;2023-04-29T11:56:12;99414.83;;;18.12;39.57
39715;BME280;54166;53.172;-6.552;2023-04-29T11:58:41;99410.15;;;18.11;39.40
39715;BME280;54166;53.172;-6.552;2023-04-29T12:01:08;99409.74;;;18.12;39.20
39715;BME280;54166;53.172;-6.552;2023-04-29T12:03:36;99411.74;;;18.11;39.14
39715;BME280;54166;53.172;-6.552;2023-04-29T12:06:03;99410.46;;;18.16;39.10
39715;BME280;54166;53.172;-6.552;2023-04-29T12:08:31;99410.07;;;18.22;39.10
39715;BME280;54166;53.172;-6.552;2023-04-29T12:10:58;99406.78;;;18.26;39.01
39715;BME280;54166;53.172;-6.552;2023-04-29T12:13:28;99408.02;;;18.31;39.13
39715;BME280;54166;53.172;-6.552;2023-04-29T12:15:56;99405.99;;;18.41;39.18
39715;BME280;54166;53.172;-6.552;2023-04-29T12:18:24;99400.67;;;18.44;39.01
39715;BME280;54166;53.172;-6.552;2023-04-29T12:20:51;99396.15;;;18.87;38.86
39715;BME280;54166;53.172;-6.552;2023-04-29T12:23:21;99394.29;;;18.14;38.91
39715;BME280;54166;53.172;-6.552;2023-04-29T12:25:49;99394.22;;;18.12;39.37
39715;BME280;54166;53.172;-6.552;2023-04-29T12:28:16;99389.98;;;18.46;39.30
39715;BME280;54166;53.172;-6.552;2023-04-29T12:30:45;99391.72;;;18.50;39.16
39715;BME280;54166;53.172;-6.552;2023-04-29T12:33:18;99392.71;;;17.91;38.96
39715;BME280;54166;53.172;-6.552;2023-04-29T12:35:46;99392.53;;;18.63;38.83
39715;BME280;54166;53.172;-6.552;2023-04-29T12:38:15;99389.47;;;17.97;38.93
39715;BME280;54166;53.172;-6.552;2023-04-29T12:40:44;99388.99;;;17.94;39.04
39715;BME280;54166;53.172;-6.552;2023-04-29T12:43:11;99389.36;;;17.92;39.14
39715;BME280;54166;53.172;-6.552;2023-04-29T12:45:38;99388.57;;;18.58;39.21
39715;BME280;54166;53.172;-6.552;2023-04-29T12:48:06;99387.43;;;18.26;39.21
39715;BME280;54166;53.172;-6.552;2023-04-29T12:50:35;99383.25;;;19.00;39.06
39715;BME280;54166;53.172;-6.552;2023-04-29T12:53:03;99383.91;;;18.62;38.91
39715;BME280;54166;53.172;-6.552;2023-04-29T12:55:32;99385.81;;;18.30;38.76
39715;BME280;54166;53.172;-6.552;2023-04-29T12:57:59;99388.07;;;18.65;38.43
39715;BME280;54166;53.172;-6.552;2023-04-29T13:00:27;99389.29;;;18.72;38.43